createdAt,value
2019-04-22T00:00:36.662Z,4.63
2019-04-22T00:03:10.545Z,5.10
2019-04-22T00:05:56.288Z,5.07
2019-04-22T00:08:36.288Z,5.03
2019-04-22T00:11:04.898Z,4.90
2019-04-22T00:13:43.897Z,4.63
2019-04-22T00:16:01.091Z,4.80
2019-04-22T00:18:42.859Z,4.53
2019-04-22T00:21:12.547Z,4.53
2019-04-22T00:23:41.868Z,4.67
2019-04-22T00:26:12.636Z,5.00
2019-04-22T00:28:43.725Z,4.87
2019-04-22T00:31:40.578Z,5.20
2019-04-22T00:34:11.181Z,4.90
2019-04-22T00:36:51.484Z,4.93
2019-04-22T00:39:25.433Z,4.83
2019-04-22T00:41:53.597Z,5.17
2019-04-22T00:44:29.820Z,4.93
2019-04-22T00:46:55.206Z,5.23
2019-04-22T00:50:10.906Z,5.10
2019-04-22T00:52:01.223Z,4.80
2019-04-22T00:54:21.402Z,5.10
2019-04-22T00:56:53.967Z,4.80
2019-04-22T00:59:23.354Z,4.90
2019-04-22T01:02:00.905Z,5.07
2019-04-22T01:04:34.774Z,4.70
2019-04-22T01:07:00.733Z,5.00
2019-04-22T01:09:40.163Z,5.13
2019-04-22T01:12:07.537Z,5.40
2019-04-22T01:14:35.630Z,5.40
2019-04-22T01:17:05.993Z,4.93
2019-04-22T01:19:48.265Z,4.67
2019-04-22T01:22:12.959Z,4.77
2019-04-22T01:24:38.678Z,4.80
2019-04-22T01:27:07.966Z,5.30
2019-04-22T01:29:39.714Z,4.70
2019-04-22T01:31:58.098Z,5.00
2019-04-22T01:34:40.092Z,4.70
2019-04-22T01:37:20.330Z,4.70
2019-04-22T01:40:00.146Z,4.30
2019-04-22T01:42:24.588Z,4.33
2019-04-22T01:44:58.167Z,4.30
2019-04-22T01:47:31.349Z,4.20
2019-04-22T01:49:59.817Z,5.20
2019-04-22T01:52:31.376Z,4.43
2019-04-22T01:57:30.415Z,4.90
2019-04-22T02:00:00.923Z,5.00
2019-04-22T02:02:44.057Z,5.33
2019-04-22T02:05:15.782Z,4.53
2019-04-22T02:07:41.946Z,5.73
2019-04-22T02:10:14.000Z,5.77
2019-04-22T02:15:12.497Z,5.30
2019-04-22T02:17:47.766Z,5.10
2019-04-22T02:20:34.711Z,4.70
2019-04-22T02:26:03.339Z,4.53
2019-04-22T02:28:38.304Z,4.37
2019-04-22T02:31:23.070Z,4.50
2019-04-22T02:43:51.861Z,4.80
2019-04-22T02:51:16.862Z,5.17
2019-04-22T02:54:17.213Z,5.30
2019-04-22T03:04:03.369Z,4.67
2019-04-22T03:08:53.761Z,4.40
2019-04-22T03:14:00.715Z,5.77
2019-04-22T03:21:23.861Z,5.77
2019-04-22T03:26:31.936Z,5.13
2019-04-22T03:28:57.071Z,6.10
2019-04-22T03:52:11.597Z,5.83
2019-04-22T04:02:21.600Z,8.47
2019-04-22T04:04:43.159Z,7.33
2019-04-22T04:10:00.994Z,6.33
2019-04-22T04:12:24.986Z,5.57
2019-04-22T04:15:11.664Z,5.87
2019-04-22T04:20:05.743Z,5.30
2019-04-22T04:22:53.782Z,5.40
2019-04-22T04:27:49.117Z,6.10
2019-04-22T04:30:05.500Z,5.83
2019-04-22T04:35:19.311Z,5.40
2019-04-22T04:45:23.989Z,6.00
2019-04-22T04:50:06.882Z,5.80
2019-04-22T04:55:17.527Z,5.30
2019-04-22T05:02:44.605Z,6.07
2019-04-22T05:05:16.715Z,6.30
2019-04-22T05:07:47.850Z,5.87
2019-04-22T05:10:31.491Z,6.13
2019-04-22T05:12:52.771Z,7.03
2019-04-22T05:15:20.491Z,7.17
2019-04-22T05:17:52.361Z,6.87
2019-04-22T05:20:26.575Z,6.40
2019-04-22T05:25:19.573Z,6.50
2019-04-22T05:27:45.349Z,6.57
2019-04-22T05:32:52.247Z,5.57
2019-04-22T05:37:57.990Z,5.57
2019-04-22T05:40:24.353Z,6.30
2019-04-22T05:42:55.996Z,6.60
2019-04-22T05:47:59.383Z,6.73
2019-04-22T05:50:23.909Z,6.30
2019-04-22T05:52:55.372Z,6.73
2019-04-22T05:58:02.783Z,6.03
2019-04-22T06:00:40.416Z,6.70
2019-04-22T06:03:07.001Z,6.37
2019-04-22T06:05:35.930Z,5.87
2019-04-22T06:08:10.238Z,5.80
2019-04-22T06:10:45.383Z,5.60
2019-04-22T06:13:13.972Z,6.23
2019-04-22T06:15:37.290Z,5.77
2019-04-22T06:18:22.584Z,6.20
2019-04-22T06:20:59.477Z,5.90
2019-04-22T06:23:25.644Z,6.03
2019-04-22T06:26:05.261Z,5.53
2019-04-22T06:28:40.638Z,5.30
2019-04-22T06:33:26.062Z,4.73
2019-04-22T06:38:35.891Z,4.83
2019-04-22T06:41:05.798Z,4.90
2019-04-22T06:46:06.304Z,4.60
2019-04-22T06:48:30.103Z,4.23
2019-04-22T06:51:05.223Z,4.50
2019-04-22T06:53:37.445Z,4.27
2019-04-22T06:56:06.660Z,4.00
2019-04-22T06:58:41.061Z,4.53
2019-04-22T07:01:15.771Z,4.10
2019-04-22T07:06:17.606Z,4.27
2019-04-22T07:09:06.009Z,4.43
2019-04-22T07:11:06.247Z,4.13
2019-04-22T07:14:00.229Z,4.20
2019-04-22T07:16:18.745Z,4.07
2019-04-22T07:19:01.906Z,4.00
2019-04-22T07:21:12.691Z,4.17
2019-04-22T07:24:20.058Z,4.00
2019-04-22T07:26:29.100Z,3.80
2019-04-22T07:28:49.833Z,4.30
2019-04-22T07:31:20.920Z,4.58
2019-04-22T07:33:51.380Z,4.30
2019-04-22T07:38:50.789Z,4.20
2019-04-22T07:41:27.012Z,4.05
2019-04-22T07:48:57.644Z,4.15
2019-04-22T07:51:32.709Z,3.37
2019-04-22T07:54:01.071Z,3.67
2019-04-22T07:56:31.748Z,3.30
2019-04-22T07:59:07.369Z,3.60
2019-04-22T08:01:30.843Z,3.83
2019-04-22T08:06:43.569Z,3.27
2019-04-22T08:09:13.917Z,3.42
2019-04-22T08:14:10.487Z,3.67
2019-04-22T08:16:43.924Z,3.37
2019-04-22T08:19:15.757Z,4.45
2019-04-22T08:21:45.476Z,3.20
2019-04-22T08:24:17.865Z,3.47
2019-04-22T08:26:46.739Z,3.15
2019-04-22T08:29:19.125Z,3.22
2019-04-22T08:31:49.233Z,3.30
2019-04-22T08:34:23.328Z,3.20
2019-04-22T08:37:12.012Z,3.20
2019-04-22T08:39:18.678Z,3.25
2019-04-22T08:41:51.288Z,2.87
2019-04-22T08:44:27.941Z,3.45
2019-04-22T08:46:57.865Z,3.20
2019-04-22T08:49:30.191Z,3.40
2019-04-22T08:51:55.676Z,3.10
2019-04-22T08:54:27.864Z,3.58
2019-04-22T08:56:58.297Z,3.20
2019-04-22T08:59:21.799Z,3.17
2019-04-22T09:01:59.359Z,3.50
2019-04-22T09:04:27.875Z,3.20
2019-04-22T09:07:16.634Z,2.85
2019-04-22T09:09:34.040Z,3.10
2019-04-22T09:12:07.869Z,3.30
2019-04-22T09:14:40.627Z,3.05
2019-04-22T09:17:13.336Z,2.90
2019-04-22T09:19:35.229Z,3.20
2019-04-22T09:22:11.258Z,2.92
2019-04-22T09:24:43.852Z,3.25
2019-04-22T09:27:22.493Z,2.98
2019-04-22T09:32:24.858Z,2.83
2019-04-22T09:34:47.337Z,2.98
2019-04-22T09:37:21.030Z,3.02
2019-04-22T09:39:52.229Z,3.08
2019-04-22T09:42:17.446Z,3.50
2019-04-22T09:44:47.311Z,3.10
2019-04-22T09:47:19.254Z,3.05
2019-04-22T09:49:55.253Z,3.17
2019-04-22T09:52:20.639Z,3.10
2019-04-22T09:55:01.578Z,2.90
2019-04-22T09:57:24.665Z,3.10
2019-04-22T10:00:10.906Z,3.10
2019-04-22T10:05:00.147Z,2.80
2019-04-22T10:07:32.466Z,2.98
2019-04-22T10:10:14.367Z,2.83
2019-04-22T10:15:00.529Z,2.80
2019-04-22T10:17:32.258Z,3.00
2019-04-22T10:20:06.706Z,2.52
2019-04-22T10:22:39.361Z,2.65
2019-04-22T10:25:08.264Z,3.10
2019-04-22T10:27:45.623Z,3.60
2019-04-22T10:30:04.573Z,2.83
2019-04-22T10:32:39.609Z,2.92
2019-04-22T10:35:09.300Z,3.20
2019-04-22T10:37:36.586Z,3.05
2019-04-22T10:40:09.874Z,2.67
2019-04-22T10:42:43.379Z,2.67
2019-04-22T10:45:14.499Z,2.60
2019-04-22T10:47:43.870Z,2.90
2019-04-22T10:50:14.692Z,2.90
2019-04-22T10:52:43.926Z,2.80
2019-04-22T10:55:13.802Z,2.83
2019-04-22T10:57:44.244Z,2.90
2019-04-22T11:00:15.452Z,2.80
2019-04-22T11:02:45.700Z,3.17
2019-04-22T11:05:16.684Z,2.70
2019-04-22T11:07:53.898Z,2.83
2019-04-22T11:10:34.602Z,2.55
2019-04-22T11:12:49.367Z,2.80
2019-04-22T11:15:19.272Z,2.60
2019-04-22T11:17:49.516Z,2.60
2019-04-22T11:20:19.879Z,2.33
2019-04-22T11:22:50.936Z,2.40
2019-04-22T11:25:21.654Z,2.60
2019-04-22T11:27:51.448Z,2.70
2019-04-22T11:30:24.196Z,2.50
2019-04-22T11:32:54.108Z,2.42
2019-04-22T11:35:23.859Z,2.40
2019-04-22T11:37:53.113Z,2.50
2019-04-22T11:40:28.560Z,2.33
2019-04-22T11:42:54.463Z,3.42
2019-04-22T11:45:24.090Z,2.50
2019-04-22T11:47:55.173Z,2.50
2019-04-22T11:50:26.121Z,2.42
2019-04-22T11:52:55.930Z,2.37
2019-04-22T11:55:28.654Z,2.60
2019-04-22T11:57:56.493Z,2.20
2019-04-22T12:00:31.005Z,2.20
2019-04-22T12:03:01.083Z,2.30
2019-04-22T12:05:30.316Z,2.20
2019-04-22T12:07:59.561Z,2.30
2019-04-22T12:10:39.717Z,2.37
2019-04-22T12:13:02.101Z,2.50
2019-04-22T12:15:32.902Z,2.10
2019-04-22T12:18:03.707Z,2.10
2019-04-22T12:20:33.103Z,2.10
2019-04-22T12:23:03.239Z,2.20
2019-04-22T12:25:43.371Z,2.27
2019-04-22T12:28:03.675Z,2.50
2019-04-22T12:30:33.396Z,1.98
2019-04-22T12:33:04.275Z,2.60
2019-04-22T12:35:34.622Z,2.55
2019-04-22T12:38:08.436Z,2.58
2019-04-22T12:40:42.463Z,2.50
2019-04-22T12:43:08.708Z,2.47
2019-04-22T12:45:38.580Z,2.20
2019-04-22T12:48:08.714Z,2.20
2019-04-22T12:50:43.419Z,2.00
2019-04-22T12:53:13.862Z,2.40
2019-04-22T12:55:42.029Z,2.20
2019-04-22T12:58:11.846Z,2.30
2019-04-22T13:00:44.929Z,2.30
2019-04-22T13:03:14.344Z,2.20
2019-04-22T13:05:45.150Z,2.30
2019-04-22T13:08:15.727Z,2.20
2019-04-22T13:10:53.336Z,2.55
2019-04-22T13:13:16.149Z,2.35
2019-04-22T13:15:46.795Z,2.42
2019-04-22T13:18:24.832Z,2.20
2019-04-22T13:20:48.479Z,2.50
2019-04-22T13:23:18.149Z,2.20
2019-04-22T13:25:49.099Z,2.22
2019-04-22T13:28:19.075Z,2.42
2019-04-22T13:30:48.672Z,2.30
2019-04-22T13:33:19.174Z,2.20
2019-04-22T13:35:49.856Z,2.37
2019-04-22T13:38:19.290Z,2.20
2019-04-22T13:41:00.932Z,2.10
2019-04-22T13:43:20.769Z,2.15
2019-04-22T13:45:50.162Z,2.08
2019-04-22T13:48:38.208Z,2.20
2019-04-22T13:51:20.797Z,2.20
2019-04-22T13:54:27.246Z,2.40
2019-04-22T13:56:13.157Z,2.30
2019-04-22T13:58:35.762Z,2.25
2019-04-22T14:00:56.652Z,2.00
2019-04-22T14:03:52.222Z,2.40
2019-04-22T14:06:22.665Z,2.03
2019-04-22T14:08:53.328Z,2.10
2019-04-22T14:11:34.561Z,2.40
2019-04-22T14:13:53.696Z,2.20
2019-04-22T14:16:24.518Z,2.33
2019-04-22T14:18:54.034Z,2.37
2019-04-22T14:21:23.277Z,2.47
2019-04-22T14:23:56.427Z,2.20
2019-04-22T14:26:27.102Z,2.30
2019-04-22T14:28:57.551Z,2.40
2019-04-22T14:31:26.944Z,2.30
2019-04-22T14:34:01.366Z,2.40
2019-04-22T14:36:27.595Z,2.30
2019-04-22T14:38:57.786Z,2.20
2019-04-22T14:41:42.362Z,2.23
2019-04-22T14:45:04.982Z,2.20
2019-04-22T14:47:05.768Z,2.50
2019-04-22T14:49:24.078Z,2.13
2019-04-22T14:51:55.062Z,2.17
2019-04-22T14:54:19.445Z,2.10
2019-04-22T15:47:50.219Z,2.00
2019-04-22T15:50:19.639Z,2.47
2019-04-22T15:52:53.034Z,2.50
2019-04-22T15:55:20.736Z,2.30
2019-04-22T15:57:50.097Z,2.50
2019-04-22T16:00:33.157Z,2.30
2019-04-22T16:02:51.967Z,2.50
2019-04-22T16:05:22.519Z,2.33
2019-04-22T16:07:52.961Z,2.33
2019-04-22T16:10:23.820Z,2.33
2019-04-22T16:13:03.520Z,2.50
2019-04-22T16:15:24.729Z,2.30
2019-04-22T16:17:54.987Z,2.20
2019-04-22T16:20:26.036Z,2.12
2019-04-22T16:23:20.277Z,2.30
2019-04-22T16:26:03.103Z,2.20
2019-04-22T16:28:33.449Z,2.22
2019-04-22T16:31:03.847Z,2.10
2019-04-22T16:33:38.387Z,2.30
2019-04-22T16:36:07.078Z,2.20
2019-04-22T16:38:37.244Z,2.30
2019-04-22T16:41:06.801Z,2.52
2019-04-22T16:43:36.610Z,2.30
2019-04-22T16:46:09.736Z,2.30
2019-04-22T16:48:39.963Z,2.47
2019-04-22T16:51:09.890Z,2.30
2019-04-22T16:53:39.312Z,2.37
2019-04-22T16:56:08.869Z,2.22
2019-04-22T16:58:38.857Z,2.47
2019-04-22T17:01:20.740Z,2.40
2019-04-22T17:04:16.513Z,2.30
2019-04-22T17:06:46.011Z,2.50
2019-04-22T17:09:17.611Z,2.50
2019-04-22T17:11:47.784Z,2.60
2019-04-22T17:14:25.427Z,2.53
2019-04-22T17:16:48.620Z,2.50
2019-04-22T17:19:19.259Z,2.40
2019-04-22T17:21:49.951Z,2.30
2019-04-22T17:24:21.799Z,2.40
2019-04-22T17:26:52.997Z,2.53
2019-04-22T17:29:22.811Z,2.40
2019-04-22T17:31:58.391Z,2.40
2019-04-22T17:34:23.488Z,2.77
2019-04-22T17:36:53.207Z,2.40
2019-04-22T17:39:40.414Z,2.40
2019-04-22T17:42:14.015Z,2.40
2019-04-22T17:44:48.140Z,2.53
2019-04-22T17:47:29.026Z,2.33
2019-04-22T17:50:11.734Z,2.57
2019-04-22T17:52:42.343Z,2.50
2019-04-22T17:55:11.326Z,2.40
2019-04-22T17:57:39.383Z,2.50
2019-04-22T18:00:11.271Z,2.50
2019-04-22T18:02:43.007Z,2.50
2019-04-22T18:05:01.991Z,2.97
2019-04-22T18:07:49.313Z,2.50
2019-04-22T18:13:01.740Z,2.90
2019-04-22T18:15:23.869Z,2.77
2019-04-22T18:18:00.536Z,2.70
2019-04-22T18:20:25.430Z,2.50
2019-04-22T18:22:49.035Z,2.80
2019-04-22T18:25:20.349Z,2.40
2019-04-22T18:28:09.060Z,2.90
2019-04-22T18:30:24.200Z,2.63
2019-04-22T18:32:57.059Z,2.70
2019-04-22T18:35:30.856Z,3.00
2019-04-22T18:38:11.314Z,2.73
2019-04-22T18:40:36.296Z,3.00
2019-04-22T18:43:09.950Z,2.83
2019-04-22T18:48:03.948Z,3.20
2019-04-22T18:51:09.605Z,2.70
2019-04-22T18:53:48.379Z,3.00
2019-04-22T18:56:19.227Z,3.07
2019-04-22T18:58:42.114Z,3.00
2019-04-22T19:00:59.684Z,3.00
2019-04-22T19:03:32.153Z,3.30
2019-04-22T19:06:32.286Z,2.90
2019-04-22T19:08:55.499Z,3.17
2019-04-22T19:11:20.885Z,3.00
2019-04-22T19:14:17.600Z,3.40
2019-04-22T19:16:43.355Z,3.00
2019-04-22T19:19:17.835Z,3.20
2019-04-22T19:21:26.029Z,2.93
2019-04-22T19:23:54.070Z,3.10
2019-04-22T19:26:48.241Z,3.13
2019-04-22T19:29:03.899Z,2.77
2019-04-22T19:31:34.710Z,3.20
2019-04-22T19:34:03.023Z,3.10
2019-04-22T19:36:43.538Z,3.20
2019-04-22T19:39:07.992Z,3.30
2019-04-22T19:41:42.260Z,4.60
2019-04-22T19:44:13.170Z,3.80
2019-04-22T19:46:43.469Z,3.20
2019-04-22T19:49:17.050Z,3.63
2019-04-22T19:51:53.917Z,3.70
2019-04-22T19:54:14.045Z,3.70
2019-04-22T19:56:38.387Z,3.70
2019-04-22T19:59:15.002Z,3.60
2019-04-22T20:02:00.964Z,4.00
2019-04-22T20:04:59.645Z,3.70
2019-04-22T20:07:40.097Z,3.90
2019-04-22T20:10:17.218Z,3.90
2019-04-22T20:12:42.894Z,3.90
2019-04-22T20:15:17.025Z,3.90
2019-04-22T20:18:08.615Z,3.80
2019-04-22T20:20:24.582Z,4.50
2019-04-22T20:22:49.443Z,6.30
2019-04-22T20:25:12.351Z,4.93
2019-04-22T20:27:54.690Z,4.00
2019-04-22T20:30:29.290Z,4.20
2019-04-22T20:32:52.461Z,4.00
2019-04-22T20:35:28.114Z,4.47
2019-04-22T20:37:56.759Z,3.97
2019-04-22T20:40:36.104Z,4.50
2019-04-22T20:43:09.165Z,4.70
2019-04-22T20:45:35.155Z,4.63
2019-04-22T20:47:58.809Z,4.77
2019-04-22T20:50:37.333Z,4.50
2019-04-22T20:53:13.390Z,4.37
2019-04-22T20:55:36.853Z,4.23
2019-04-22T20:58:12.214Z,4.30
2019-04-22T21:00:36.573Z,4.20
2019-04-22T21:03:03.233Z,4.30
2019-04-22T21:05:34.182Z,4.60
2019-04-22T21:08:19.020Z,4.33
2019-04-22T21:10:42.568Z,4.27
2019-04-22T21:13:11.121Z,4.93
2019-04-22T21:15:49.378Z,4.73
2019-04-22T21:18:15.115Z,5.00
2019-04-22T21:20:59.250Z,4.83
2019-04-22T21:23:21.380Z,6.07
2019-04-22T21:25:47.424Z,5.00
2019-04-22T21:28:31.205Z,4.80
2019-04-22T21:30:55.160Z,5.00
2019-04-22T21:33:23.588Z,4.93
2019-04-22T21:36:25.120Z,4.93
2019-04-22T21:38:40.386Z,5.17
2019-04-22T21:41:10.014Z,5.40
2019-04-22T21:43:42.530Z,5.77
2019-04-22T21:46:13.432Z,5.33
2019-04-22T21:48:42.652Z,5.53
2019-04-22T21:51:19.198Z,5.50
2019-04-22T21:53:55.499Z,5.67
2019-04-22T21:56:34.905Z,4.90
2019-04-22T21:58:50.670Z,5.13
2019-04-22T22:01:38.123Z,5.73
2019-04-22T22:04:03.311Z,5.30
2019-04-22T22:06:23.567Z,5.47
2019-04-22T22:09:05.839Z,5.30
2019-04-22T22:11:35.135Z,5.50
2019-04-22T22:14:02.441Z,5.50
2019-04-22T22:16:33.573Z,5.53
2019-04-22T22:19:08.169Z,5.60
2019-04-22T22:21:48.349Z,5.43
2019-04-22T22:24:08.961Z,5.50
2019-04-22T22:26:44.788Z,7.27
2019-04-22T22:29:20.196Z,12.67
2019-04-22T22:31:47.063Z,6.23
2019-04-22T22:34:19.163Z,5.40
2019-04-22T22:36:42.151Z,5.70
2019-04-22T22:39:13.264Z,5.53
2019-04-22T22:41:27.878Z,5.50
2019-04-22T22:44:06.956Z,5.70
2019-04-22T22:46:39.229Z,5.80
2019-04-22T22:49:22.955Z,5.40
2019-04-22T22:51:53.250Z,5.80
2019-04-22T22:54:25.144Z,6.03
2019-04-22T22:56:59.678Z,5.43
2019-04-22T22:59:27.536Z,5.60
2019-04-22T23:01:54.510Z,6.17
2019-04-22T23:04:34.233Z,5.73
2019-04-22T23:07:00.422Z,5.53
2019-04-22T23:09:30.608Z,5.90
2019-04-22T23:14:32.741Z,5.63
2019-04-22T23:16:51.443Z,6.23
2019-04-22T23:19:15.698Z,5.57
2019-04-22T23:21:49.962Z,6.07
2019-04-22T23:24:50.109Z,5.93
2019-04-22T23:27:27.309Z,5.87
2019-04-22T23:30:01.195Z,5.80
2019-04-22T23:32:31.931Z,5.67
2019-04-22T23:35:14.434Z,6.20
2019-04-22T23:37:47.580Z,6.73
2019-04-22T23:40:29.689Z,5.67
2019-04-22T23:42:53.032Z,5.70
2019-04-22T23:45:27.051Z,5.63
2019-04-22T23:47:43.493Z,6.30
2019-04-22T23:50:26.691Z,5.97
2019-04-22T23:53:00.576Z,5.70
2019-04-22T23:55:33.449Z,5.83
2019-04-22T23:58:02.690Z,5.30
